sensor_id;sensor_type;location;lat;lon;timestamp;P1;durP1;ratioP1;P2;durP2;ratioP2
65684;SDS011;52405;50.844;-1.062;2022-12-18T00:03:51;18.55;;;9.88;;
65684;SDS011;52405;50.844;-1.062;2022-12-18T00:06:17;19.42;;;10.25;;
65684;SDS011;52405;50.844;-1.062;2022-12-18T00:08:44;20.10;;;10.75;;
65684;SDS011;52405;50.844;-1.062;2022-12-18T00:11:11;25.25;;;11.45;;
65684;SDS011;52405;50.844;-1.062;2022-12-18T00:13:39;27.20;;;12.38;;
65684;SDS011;52405;50.844;-1.062;2022-12-18T00:16:06;18.20;;;10.82;;
65684;SDS011;52405;50.844;-1.062;2022-12-18T00:18:34;17.90;;;10.65;;
65684;SDS011;52405;50.844;-1.062;2022-12-18T00:21:00;24.77;;;9.90;;
65684;SDS011;52405;50.844;-1.062;2022-12-18T00:23:29;14.00;;;9.48;;
65684;SDS011;52405;50.844;-1.062;2022-12-18T00:25:59;14.30;;;8.75;;
65684;SDS011;52405;50.844;-1.062;2022-12-18T00:28:25;14.48;;;8.25;;
65684;SDS011;52405;50.844;-1.062;2022-12-18T00:30:51;14.98;;;8.18;;
65684;SDS011;52405;50.844;-1.062;2022-12-18T00:33:25;16.67;;;9.32;;
65684;SDS011;52405;50.844;-1.062;2022-12-18T00:35:50;11.05;;;6.82;;
65684;SDS011;52405;50.844;-1.062;2022-12-18T00:38:16;15.80;;;9.25;;
65684;SDS011;52405;50.844;-1.062;2022-12-18T00:40:41;16.55;;;9.20;;
65684;SDS011;52405;50.844;-1.062;2022-12-18T00:43:07;14.52;;;8.55;;
65684;SDS011;52405;50.844;-1.062;2022-12-18T00:45:34;12.75;;;8.68;;
65684;SDS011;52405;50.844;-1.062;2022-12-18T00:48:00;15.70;;;8.75;;
65684;SDS011;52405;50.844;-1.062;2022-12-18T00:50:25;24.42;;;9.13;;
65684;SDS011;52405;50.844;-1.062;2022-12-18T00:52:51;19.00;;;9.40;;
65684;SDS011;52405;50.844;-1.062;2022-12-18T00:55:17;22.48;;;10.45;;
65684;SDS011;52405;50.844;-1.062;2022-12-18T00:57:43;15.70;;;9.10;;
65684;SDS011;52405;50.844;-1.062;2022-12-18T01:00:10;21.40;;;8.40;;
65684;SDS011;52405;50.844;-1.062;2022-12-18T01:02:38;16.85;;;8.85;;
65684;SDS011;52405;50.844;-1.062;2022-12-18T01:05:04;21.83;;;9.40;;
65684;SDS011;52405;50.844;-1.062;2022-12-18T01:07:30;16.33;;;8.77;;
65684;SDS011;52405;50.844;-1.062;2022-12-18T01:09:55;12.82;;;7.70;;
65684;SDS011;52405;50.844;-1.062;2022-12-18T01:12:21;13.75;;;8.63;;
65684;SDS011;52405;50.844;-1.062;2022-12-18T01:14:46;14.95;;;9.52;;
65684;SDS011;52405;50.844;-1.062;2022-12-18T01:17:12;15.90;;;10.02;;
65684;SDS011;52405;50.844;-1.062;2022-12-18T01:19:37;20.48;;;9.30;;
65684;SDS011;52405;50.844;-1.062;2022-12-18T01:22:02;17.92;;;9.50;;
65684;SDS011;52405;50.844;-1.062;2022-12-18T01:24:28;19.80;;;9.02;;
65684;SDS011;52405;50.844;-1.062;2022-12-18T01:26:53;16.60;;;9.30;;
65684;SDS011;52405;50.844;-1.062;2022-12-18T01:29:19;15.68;;;9.57;;
65684;SDS011;52405;50.844;-1.062;2022-12-18T01:31:44;17.70;;;9.32;;
65684;SDS011;52405;50.844;-1.062;2022-12-18T01:34:10;16.48;;;8.90;;
65684;SDS011;52405;50.844;-1.062;2022-12-18T01:36:37;13.52;;;7.82;;
65684;SDS011;52405;50.844;-1.062;2022-12-18T01:39:10;16.40;;;8.98;;
65684;SDS011;52405;50.844;-1.062;2022-12-18T01:41:38;12.90;;;8.13;;
65684;SDS011;52405;50.844;-1.062;2022-12-18T01:49:57;11.30;;;7.38;;
65684;SDS011;52405;50.844;-1.062;2022-12-18T01:52:25;11.55;;;7.25;;
65684;SDS011;52405;50.844;-1.062;2022-12-18T01:54:53;15.73;;;8.18;;
65684;SDS011;52405;50.844;-1.062;2022-12-18T01:57:20;13.85;;;7.57;;
65684;SDS011;52405;50.844;-1.062;2022-12-18T01:59:47;12.70;;;7.22;;
65684;SDS011;52405;50.844;-1.062;2022-12-18T02:02:17;18.10;;;6.85;;
65684;SDS011;52405;50.844;-1.062;2022-12-18T02:04:44;20.50;;;8.05;;
65684;SDS011;52405;50.844;-1.062;2022-12-18T02:09:59;13.15;;;7.80;;
65684;SDS011;52405;50.844;-1.062;2022-12-18T02:12:32;12.73;;;7.32;;
65684;SDS011;52405;50.844;-1.062;2022-12-18T02:15:09;15.55;;;8.10;;
65684;SDS011;52405;50.844;-1.062;2022-12-18T02:17:50;16.17;;;7.17;;
65684;SDS011;52405;50.844;-1.062;2022-12-18T02:23:24;12.45;;;6.68;;
65684;SDS011;52405;50.844;-1.062;2022-12-18T02:31:01;13.40;;;6.75;;
65684;SDS011;52405;50.844;-1.062;2022-12-18T02:33:30;14.23;;;7.75;;
65684;SDS011;52405;50.844;-1.062;2022-12-18T02:35:57;19.63;;;7.82;;
65684;SDS011;52405;50.844;-1.062;2022-12-18T02:38:25;16.40;;;7.43;;
65684;SDS011;52405;50.844;-1.062;2022-12-18T02:40:50;14.73;;;7.43;;
65684;SDS011;52405;50.844;-1.062;2022-12-18T02:43:18;14.45;;;6.88;;
65684;SDS011;52405;50.844;-1.062;2022-12-18T02:45:48;15.73;;;8.43;;
65684;SDS011;52405;50.844;-1.062;2022-12-18T02:48:22;11.77;;;7.20;;
65684;SDS011;52405;50.844;-1.062;2022-12-18T02:53:29;15.43;;;7.60;;
65684;SDS011;52405;50.844;-1.062;2022-12-18T02:56:07;12.30;;;7.90;;
65684;SDS011;52405;50.844;-1.062;2022-12-18T03:04:07;16.35;;;7.00;;
65684;SDS011;52405;50.844;-1.062;2022-12-18T03:06:40;15.18;;;7.03;;
65684;SDS011;52405;50.844;-1.062;2022-12-18T03:09:16;13.73;;;7.40;;
65684;SDS011;52405;50.844;-1.062;2022-12-18T03:11:52;16.10;;;7.00;;
65684;SDS011;52405;50.844;-1.062;2022-12-18T03:14:40;15.55;;;7.20;;
65684;SDS011;52405;50.844;-1.062;2022-12-18T03:17:13;13.65;;;6.97;;
65684;SDS011;52405;50.844;-1.062;2022-12-18T03:19:42;13.65;;;6.60;;
65684;SDS011;52405;50.844;-1.062;2022-12-18T03:22:11;10.32;;;6.15;;
65684;SDS011;52405;50.844;-1.062;2022-12-18T03:24:38;10.20;;;5.95;;
65684;SDS011;52405;50.844;-1.062;2022-12-18T03:27:05;14.98;;;7.25;;
65684;SDS011;52405;50.844;-1.062;2022-12-18T03:29:38;13.52;;;6.22;;
65684;SDS011;52405;50.844;-1.062;2022-12-18T03:32:09;18.10;;;6.20;;
65684;SDS011;52405;50.844;-1.062;2022-12-18T03:34:38;11.35;;;5.88;;
65684;SDS011;52405;50.844;-1.062;2022-12-18T03:37:06;10.57;;;5.40;;
65684;SDS011;52405;50.844;-1.062;2022-12-18T03:39:32;13.85;;;6.10;;
65684;SDS011;52405;50.844;-1.062;2022-12-18T03:42:10;11.52;;;7.00;;
65684;SDS011;52405;50.844;-1.062;2022-12-18T03:50:22;13.00;;;6.20;;
65684;SDS011;52405;50.844;-1.062;2022-12-18T03:55:26;9.65;;;5.78;;
65684;SDS011;52405;50.844;-1.062;2022-12-18T03:57:55;13.02;;;5.57;;
65684;SDS011;52405;50.844;-1.062;2022-12-18T04:00:22;11.30;;;5.63;;
65684;SDS011;52405;50.844;-1.062;2022-12-18T04:02:48;10.38;;;5.35;;
65684;SDS011;52405;50.844;-1.062;2022-12-18T04:05:20;13.32;;;5.82;;
65684;SDS011;52405;50.844;-1.062;2022-12-18T04:07:47;14.65;;;6.70;;
65684;SDS011;52405;50.844;-1.062;2022-12-18T04:10:16;8.98;;;5.32;;
65684;SDS011;52405;50.844;-1.062;2022-12-18T04:12:42;10.48;;;5.45;;
65684;SDS011;52405;50.844;-1.062;2022-12-18T04:15:08;12.23;;;6.32;;
65684;SDS011;52405;50.844;-1.062;2022-12-18T04:17:35;9.50;;;5.47;;
65684;SDS011;52405;50.844;-1.062;2022-12-18T04:20:02;17.42;;;5.60;;
65684;SDS011;52405;50.844;-1.062;2022-12-18T04:22:28;7.97;;;5.07;;
65684;SDS011;52405;50.844;-1.062;2022-12-18T04:24:53;13.50;;;6.57;;
65684;SDS011;52405;50.844;-1.062;2022-12-18T04:27:19;13.77;;;6.05;;
65684;SDS011;52405;50.844;-1.062;2022-12-18T04:29:44;16.63;;;5.68;;
65684;SDS011;52405;50.844;-1.062;2022-12-18T04:32:10;9.50;;;5.72;;
65684;SDS011;52405;50.844;-1.062;2022-12-18T04:34:35;11.27;;;6.50;;
65684;SDS011;52405;50.844;-1.062;2022-12-18T04:37:01;10.68;;;6.55;;
65684;SDS011;52405;50.844;-1.062;2022-12-18T04:39:26;11.43;;;6.38;;
65684;SDS011;52405;50.844;-1.062;2022-12-18T04:41:52;13.30;;;6.22;;
65684;SDS011;52405;50.844;-1.062;2022-12-18T04:44:17;11.02;;;6.65;;
65684;SDS011;52405;50.844;-1.062;2022-12-18T04:46:43;11.55;;;6.50;;
65684;SDS011;52405;50.844;-1.062;2022-12-18T04:49:09;10.85;;;6.40;;
65684;SDS011;52405;50.844;-1.062;2022-12-18T04:51:36;14.60;;;6.15;;
65684;SDS011;52405;50.844;-1.062;2022-12-18T04:54:02;16.23;;;6.70;;
65684;SDS011;52405;50.844;-1.062;2022-12-18T04:56:28;19.58;;;7.07;;
65684;SDS011;52405;50.844;-1.062;2022-12-18T04:58:53;11.85;;;6.15;;
65684;SDS011;52405;50.844;-1.062;2022-12-18T05:01:18;13.90;;;7.03;;
65684;SDS011;52405;50.844;-1.062;2022-12-18T05:03:44;11.70;;;6.60;;
65684;SDS011;52405;50.844;-1.062;2022-12-18T05:06:10;10.23;;;6.05;;
65684;SDS011;52405;50.844;-1.062;2022-12-18T05:08:35;10.07;;;5.60;;
65684;SDS011;52405;50.844;-1.062;2022-12-18T05:11:11;12.43;;;6.85;;
65684;SDS011;52405;50.844;-1.062;2022-12-18T05:13:40;14.45;;;6.68;;
65684;SDS011;52405;50.844;-1.062;2022-12-18T05:16:07;14.25;;;7.30;;
65684;SDS011;52405;50.844;-1.062;2022-12-18T05:18:33;17.00;;;7.95;;
65684;SDS011;52405;50.844;-1.062;2022-12-18T05:20:59;13.95;;;6.88;;
65684;SDS011;52405;50.844;-1.062;2022-12-18T05:23:24;14.93;;;7.10;;
65684;SDS011;52405;50.844;-1.062;2022-12-18T05:25:54;13.05;;;6.68;;
65684;SDS011;52405;50.844;-1.062;2022-12-18T05:28:24;14.63;;;7.68;;
65684;SDS011;52405;50.844;-1.062;2022-12-18T05:30:53;14.98;;;7.05;;
65684;SDS011;52405;50.844;-1.062;2022-12-18T05:33:20;13.88;;;7.43;;
65684;SDS011;52405;50.844;-1.062;2022-12-18T05:35:56;17.42;;;7.88;;
65684;SDS011;52405;50.844;-1.062;2022-12-18T05:38:24;15.40;;;8.02;;
65684;SDS011;52405;50.844;-1.062;2022-12-18T05:40:51;12.35;;;7.60;;
65684;SDS011;52405;50.844;-1.062;2022-12-18T05:43:17;13.93;;;8.27;;
65684;SDS011;52405;50.844;-1.062;2022-12-18T05:45:44;16.38;;;9.25;;
65684;SDS011;52405;50.844;-1.062;2022-12-18T05:48:10;14.68;;;8.85;;
65684;SDS011;52405;50.844;-1.062;2022-12-18T05:50:37;26.83;;;9.75;;
65684;SDS011;52405;50.844;-1.062;2022-12-18T05:53:04;15.15;;;9.23;;
65684;SDS011;52405;50.844;-1.062;2022-12-18T05:55:38;15.27;;;7.93;;
65684;SDS011;52405;50.844;-1.062;2022-12-18T05:58:05;18.95;;;8.52;;
65684;SDS011;52405;50.844;-1.062;2022-12-18T06:00:32;17.90;;;9.23;;
65684;SDS011;52405;50.844;-1.062;2022-12-18T06:02:59;17.15;;;9.27;;
65684;SDS011;52405;50.844;-1.062;2022-12-18T06:05:25;17.08;;;8.20;;
65684;SDS011;52405;50.844;-1.062;2022-12-18T06:07:51;20.50;;;8.82;;
65684;SDS011;52405;50.844;-1.062;2022-12-18T06:10:16;16.80;;;9.45;;
65684;SDS011;52405;50.844;-1.062;2022-12-18T06:12:42;22.58;;;10.82;;
65684;SDS011;52405;50.844;-1.062;2022-12-18T06:15:07;18.77;;;10.23;;
65684;SDS011;52405;50.844;-1.062;2022-12-18T06:17:33;18.17;;;10.05;;
65684;SDS011;52405;50.844;-1.062;2022-12-18T06:19:59;16.48;;;10.50;;
65684;SDS011;52405;50.844;-1.062;2022-12-18T06:22:26;20.25;;;10.13;;
65684;SDS011;52405;50.844;-1.062;2022-12-18T06:24:51;18.75;;;10.10;;
65684;SDS011;52405;50.844;-1.062;2022-12-18T06:27:17;19.77;;;9.48;;
65684;SDS011;52405;50.844;-1.062;2022-12-18T06:29:42;17.50;;;9.13;;
65684;SDS011;52405;50.844;-1.062;2022-12-18T06:32:08;20.70;;;10.43;;
65684;SDS011;52405;50.844;-1.062;2022-12-18T06:34:33;19.23;;;10.15;;
65684;SDS011;52405;50.844;-1.062;2022-12-18T06:37:02;20.05;;;9.98;;
65684;SDS011;52405;50.844;-1.062;2022-12-18T06:39:27;15.30;;;9.10;;
65684;SDS011;52405;50.844;-1.062;2022-12-18T06:41:53;21.30;;;8.57;;
65684;SDS011;52405;50.844;-1.062;2022-12-18T06:44:19;17.67;;;9.30;;
65684;SDS011;52405;50.844;-1.062;2022-12-18T06:46:45;15.85;;;9.80;;
65684;SDS011;52405;50.844;-1.062;2022-12-18T06:49:10;15.40;;;7.68;;
65684;SDS011;52405;50.844;-1.062;2022-12-18T06:51:36;16.08;;;9.25;;
65684;SDS011;52405;50.844;-1.062;2022-12-18T06:54:01;15.57;;;9.43;;
65684;SDS011;52405;50.844;-1.062;2022-12-18T06:56:27;19.15;;;10.05;;
65684;SDS011;52405;50.844;-1.062;2022-12-18T06:58:53;15.07;;;9.80;;
65684;SDS011;52405;50.844;-1.062;2022-12-18T07:01:18;18.95;;;9.85;;
65684;SDS011;52405;50.844;-1.062;2022-12-18T07:03:44;16.40;;;8.40;;
65684;SDS011;52405;50.844;-1.062;2022-12-18T07:06:16;29.85;;;9.30;;
65684;SDS011;52405;50.844;-1.062;2022-12-18T07:08:43;20.85;;;10.73;;
65684;SDS011;52405;50.844;-1.062;2022-12-18T07:11:10;22.58;;;11.23;;
65684;SDS011;52405;50.844;-1.062;2022-12-18T07:13:36;19.23;;;10.50;;
65684;SDS011;52405;50.844;-1.062;2022-12-18T07:16:05;20.58;;;10.35;;
65684;SDS011;52405;50.844;-1.062;2022-12-18T07:18:36;18.60;;;10.30;;
65684;SDS011;52405;50.844;-1.062;2022-12-18T07:21:03;26.40;;;10.27;;
65684;SDS011;52405;50.844;-1.062;2022-12-18T07:23:29;14.93;;;9.65;;
65684;SDS011;52405;50.844;-1.062;2022-12-18T07:26:00;20.52;;;11.95;;
65684;SDS011;52405;50.844;-1.062;2022-12-18T07:28:29;18.70;;;10.02;;
65684;SDS011;52405;50.844;-1.062;2022-12-18T07:30:54;19.83;;;10.30;;
65684;SDS011;52405;50.844;-1.062;2022-12-18T07:33:20;19.02;;;10.95;;
65684;SDS011;52405;50.844;-1.062;2022-12-18T07:35:45;20.08;;;11.02;;
65684;SDS011;52405;50.844;-1.062;2022-12-18T07:38:11;15.68;;;9.70;;
65684;SDS011;52405;50.844;-1.062;2022-12-18T07:40:36;21.10;;;11.70;;
65684;SDS011;52405;50.844;-1.062;2022-12-18T07:43:01;17.08;;;10.13;;
65684;SDS011;52405;50.844;-1.062;2022-12-18T07:45:27;16.83;;;10.77;;
65684;SDS011;52405;50.844;-1.062;2022-12-18T07:47:52;21.15;;;12.00;;
65684;SDS011;52405;50.844;-1.062;2022-12-18T07:50:18;22.33;;;10.70;;
65684;SDS011;52405;50.844;-1.062;2022-12-18T07:52:43;18.65;;;9.73;;
65684;SDS011;52405;50.844;-1.062;2022-12-18T07:55:09;23.80;;;10.70;;
65684;SDS011;52405;50.844;-1.062;2022-12-18T07:57:34;18.08;;;9.93;;
65684;SDS011;52405;50.844;-1.062;2022-12-18T08:00:00;20.58;;;9.98;;
65684;SDS011;52405;50.844;-1.062;2022-12-18T08:02:25;18.23;;;8.68;;
65684;SDS011;52405;50.844;-1.062;2022-12-18T08:04:51;18.08;;;10.00;;
65684;SDS011;52405;50.844;-1.062;2022-12-18T08:07:16;20.67;;;10.15;;
65684;SDS011;52405;50.844;-1.062;2022-12-18T08:09:42;21.00;;;10.43;;
65684;SDS011;52405;50.844;-1.062;2022-12-18T08:12:07;22.48;;;10.35;;
65684;SDS011;52405;50.844;-1.062;2022-12-18T08:14:33;16.85;;;10.65;;
65684;SDS011;52405;50.844;-1.062;2022-12-18T08:16:58;15.60;;;9.60;;
65684;SDS011;52405;50.844;-1.062;2022-12-18T08:19:24;22.05;;;10.57;;
65684;SDS011;52405;50.844;-1.062;2022-12-18T08:21:49;21.13;;;10.20;;
65684;SDS011;52405;50.844;-1.062;2022-12-18T08:24:15;17.15;;;10.88;;
65684;SDS011;52405;50.844;-1.062;2022-12-18T08:26:41;19.40;;;9.60;;
65684;SDS011;52405;50.844;-1.062;2022-12-18T08:29:06;17.13;;;9.98;;
65684;SDS011;52405;50.844;-1.062;2022-12-18T08:31:31;15.45;;;8.77;;
65684;SDS011;52405;50.844;-1.062;2022-12-18T08:33:57;18.35;;;9.65;;
65684;SDS011;52405;50.844;-1.062;2022-12-18T08:36:23;20.38;;;10.40;;
65684;SDS011;52405;50.844;-1.062;2022-12-18T08:38:50;19.50;;;8.63;;
65684;SDS011;52405;50.844;-1.062;2022-12-18T08:41:16;20.42;;;9.15;;
65684;SDS011;52405;50.844;-1.062;2022-12-18T08:43:43;20.35;;;9.98;;
65684;SDS011;52405;50.844;-1.062;2022-12-18T08:46:30;16.67;;;9.20;;
65684;SDS011;52405;50.844;-1.062;2022-12-18T08:48:59;21.30;;;9.85;;
65684;SDS011;52405;50.844;-1.062;2022-12-18T08:51:24;18.25;;;10.23;;
65684;SDS011;52405;50.844;-1.062;2022-12-18T08:53:50;16.92;;;9.00;;
65684;SDS011;52405;50.844;-1.062;2022-12-18T08:56:15;18.00;;;10.55;;
65684;SDS011;52405;50.844;-1.062;2022-12-18T08:58:41;18.00;;;10.40;;
65684;SDS011;52405;50.844;-1.062;2022-12-18T09:01:08;16.52;;;9.50;;
65684;SDS011;52405;50.844;-1.062;2022-12-18T09:03:35;21.45;;;10.93;;
65684;SDS011;52405;50.844;-1.062;2022-12-18T09:06:01;18.25;;;9.65;;
65684;SDS011;52405;50.844;-1.062;2022-12-18T09:08:27;20.88;;;10.50;;
65684;SDS011;52405;50.844;-1.062;2022-12-18T09:10:53;24.00;;;12.18;;
65684;SDS011;52405;50.844;-1.062;2022-12-18T09:13:20;18.75;;;10.13;;
65684;SDS011;52405;50.844;-1.062;2022-12-18T09:15:46;20.98;;;9.15;;
65684;SDS011;52405;50.844;-1.062;2022-12-18T09:18:14;18.17;;;10.48;;
65684;SDS011;52405;50.844;-1.062;2022-12-18T09:20:41;19.50;;;11.45;;
65684;SDS011;52405;50.844;-1.062;2022-12-18T09:23:06;20.65;;;11.57;;
65684;SDS011;52405;50.844;-1.062;2022-12-18T09:25:33;24.95;;;12.00;;
65684;SDS011;52405;50.844;-1.062;2022-12-18T09:28:00;19.48;;;11.43;;
65684;SDS011;52405;50.844;-1.062;2022-12-18T09:30:39;22.50;;;13.25;;
65684;SDS011;52405;50.844;-1.062;2022-12-18T09:33:06;25.63;;;12.90;;
65684;SDS011;52405;50.844;-1.062;2022-12-18T09:35:32;22.83;;;12.77;;
65684;SDS011;52405;50.844;-1.062;2022-12-18T09:37:57;20.38;;;11.63;;
65684;SDS011;52405;50.844;-1.062;2022-12-18T09:40:23;21.92;;;11.45;;
65684;SDS011;52405;50.844;-1.062;2022-12-18T09:42:52;18.38;;;11.70;;
65684;SDS011;52405;50.844;-1.062;2022-12-18T09:45:22;24.40;;;12.18;;
65684;SDS011;52405;50.844;-1.062;2022-12-18T09:47:49;22.85;;;11.50;;
65684;SDS011;52405;50.844;-1.062;2022-12-18T09:50:27;21.92;;;12.18;;
65684;SDS011;52405;50.844;-1.062;2022-12-18T09:52:56;24.20;;;12.45;;
65684;SDS011;52405;50.844;-1.062;2022-12-18T09:55:37;26.50;;;13.52;;
65684;SDS011;52405;50.844;-1.062;2022-12-18T09:58:11;27.48;;;12.85;;
65684;SDS011;52405;50.844;-1.062;2022-12-18T10:03:11;23.45;;;12.27;;
65684;SDS011;52405;50.844;-1.062;2022-12-18T10:08:23;24.92;;;13.77;;
65684;SDS011;52405;50.844;-1.062;2022-12-18T10:22:17;31.23;;;14.32;;
65684;SDS011;52405;50.844;-1.062;2022-12-18T10:24:53;29.98;;;14.45;;
65684;SDS011;52405;50.844;-1.062;2022-12-18T10:27:26;29.33;;;14.85;;
65684;SDS011;52405;50.844;-1.062;2022-12-18T10:29:54;32.42;;;14.25;;
65684;SDS011;52405;50.844;-1.062;2022-12-18T10:32:24;26.23;;;15.75;;
65684;SDS011;52405;50.844;-1.062;2022-12-18T10:34:52;30.77;;;14.63;;
65684;SDS011;52405;50.844;-1.062;2022-12-18T10:37:22;34.78;;;15.32;;
65684;SDS011;52405;50.844;-1.062;2022-12-18T10:40:06;29.85;;;13.65;;
65684;SDS011;52405;50.844;-1.062;2022-12-18T10:42:37;32.53;;;14.50;;
65684;SDS011;52405;50.844;-1.062;2022-12-18T10:45:07;28.55;;;14.13;;
65684;SDS011;52405;50.844;-1.062;2022-12-18T10:47:33;32.22;;;14.52;;
65684;SDS011;52405;50.844;-1.062;2022-12-18T10:49:59;34.65;;;14.48;;
65684;SDS011;52405;50.844;-1.062;2022-12-18T10:52:28;29.33;;;14.93;;
65684;SDS011;52405;50.844;-1.062;2022-12-18T10:55:01;35.20;;;15.13;;
65684;SDS011;52405;50.844;-1.062;2022-12-18T10:57:30;36.97;;;14.80;;
65684;SDS011;52405;50.844;-1.062;2022-12-18T10:59:59;24.50;;;14.13;;
65684;SDS011;52405;50.844;-1.062;2022-12-18T11:02:38;28.80;;;14.63;;
65684;SDS011;52405;50.844;-1.062;2022-12-18T11:05:26;28.52;;;14.02;;
65684;SDS011;52405;50.844;-1.062;2022-12-18T11:07:52;26.55;;;14.23;;
65684;SDS011;52405;50.844;-1.062;2022-12-18T11:10:20;29.65;;;14.00;;
65684;SDS011;52405;50.844;-1.062;2022-12-18T11:12:47;29.65;;;12.60;;
65684;SDS011;52405;50.844;-1.062;2022-12-18T11:15:18;20.70;;;12.35;;
65684;SDS011;52405;50.844;-1.062;2022-12-18T11:17:47;26.73;;;12.55;;
65684;SDS011;52405;50.844;-1.062;2022-12-18T11:20:19;29.48;;;12.77;;
65684;SDS011;52405;50.844;-1.062;2022-12-18T11:22:59;37.03;;;13.82;;
65684;SDS011;52405;50.844;-1.062;2022-12-18T11:25:31;26.60;;;11.98;;
65684;SDS011;52405;50.844;-1.062;2022-12-18T11:27:59;24.15;;;11.52;;
65684;SDS011;52405;50.844;-1.062;2022-12-18T11:30:45;27.38;;;11.15;;
65684;SDS011;52405;50.844;-1.062;2022-12-18T11:33:20;24.17;;;11.40;;
65684;SDS011;52405;50.844;-1.062;2022-12-18T11:35:51;25.70;;;9.95;;
65684;SDS011;52405;50.844;-1.062;2022-12-18T11:38:28;24.25;;;9.93;;
65684;SDS011;52405;50.844;-1.062;2022-12-18T11:43:45;27.00;;;11.90;;
65684;SDS011;52405;50.844;-1.062;2022-12-18T11:46:39;28.75;;;12.52;;
65684;SDS011;52405;50.844;-1.062;2022-12-18T11:49:13;30.40;;;11.43;;
65684;SDS011;52405;50.844;-1.062;2022-12-18T11:51:49;20.20;;;10.60;;
65684;SDS011;52405;50.844;-1.062;2022-12-18T11:54:19;25.42;;;11.02;;
65684;SDS011;52405;50.844;-1.062;2022-12-18T12:04:48;24.30;;;9.63;;
65684;SDS011;52405;50.844;-1.062;2022-12-18T12:07:42;21.15;;;9.77;;
65684;SDS011;52405;50.844;-1.062;2022-12-18T12:15:57;22.73;;;8.60;;
65684;SDS011;52405;50.844;-1.062;2022-12-18T12:18:48;21.92;;;9.07;;
65684;SDS011;52405;50.844;-1.062;2022-12-18T12:32:12;20.17;;;9.07;;
65684;SDS011;52405;50.844;-1.062;2022-12-18T12:35:19;23.02;;;9.02;;
65684;SDS011;52405;50.844;-1.062;2022-12-18T12:41:04;23.95;;;8.73;;
65684;SDS011;52405;50.844;-1.062;2022-12-18T12:43:51;19.15;;;9.35;;
65684;SDS011;52405;50.844;-1.062;2022-12-18T12:46:20;29.02;;;9.48;;
65684;SDS011;52405;50.844;-1.062;2022-12-18T12:48:55;26.35;;;9.63;;
65684;SDS011;52405;50.844;-1.062;2022-12-18T12:53:51;20.90;;;8.98;;
65684;SDS011;52405;50.844;-1.062;2022-12-18T12:56:20;19.40;;;9.38;;
65684;SDS011;52405;50.844;-1.062;2022-12-18T12:58:55;22.52;;;8.90;;
65684;SDS011;52405;50.844;-1.062;2022-12-18T13:04:02;23.05;;;9.68;;
65684;SDS011;52405;50.844;-1.062;2022-12-18T13:06:46;28.92;;;9.82;;
65684;SDS011;52405;50.844;-1.062;2022-12-18T13:09:29;31.25;;;9.52;;
65684;SDS011;52405;50.844;-1.062;2022-12-18T13:12:01;25.92;;;9.18;;
65684;SDS011;52405;50.844;-1.062;2022-12-18T13:14:47;24.10;;;8.70;;
65684;SDS011;52405;50.844;-1.062;2022-12-18T13:19:48;24.58;;;10.15;;
65684;SDS011;52405;50.844;-1.062;2022-12-18T13:22:22;23.85;;;9.50;;
65684;SDS011;52405;50.844;-1.062;2022-12-18T13:24:55;21.02;;;8.13;;
65684;SDS011;52405;50.844;-1.062;2022-12-18T13:41:37;28.63;;;9.35;;
65684;SDS011;52405;50.844;-1.062;2022-12-18T13:46:47;29.38;;;8.18;;
65684;SDS011;52405;50.844;-1.062;2022-12-18T13:51:59;29.25;;;7.47;;
65684;SDS011;52405;50.844;-1.062;2022-12-18T13:54:34;23.52;;;8.63;;
65684;SDS011;52405;50.844;-1.062;2022-12-18T13:57:02;23.85;;;7.40;;
65684;SDS011;52405;50.844;-1.062;2022-12-18T13:59:37;26.38;;;9.20;;
65684;SDS011;52405;50.844;-1.062;2022-12-18T14:02:14;29.33;;;7.97;;
65684;SDS011;52405;50.844;-1.062;2022-12-18T14:04:44;29.92;;;7.03;;
65684;SDS011;52405;50.844;-1.062;2022-12-18T14:07:27;27.67;;;7.80;;
65684;SDS011;52405;50.844;-1.062;2022-12-18T14:09:55;32.55;;;8.55;;
65684;SDS011;52405;50.844;-1.062;2022-12-18T14:12:32;23.45;;;7.00;;
65684;SDS011;52405;50.844;-1.062;2022-12-18T14:20:45;32.83;;;8.63;;
65684;SDS011;52405;50.844;-1.062;2022-12-18T14:23:46;22.88;;;7.50;;
65684;SDS011;52405;50.844;-1.062;2022-12-18T14:28:55;27.02;;;6.60;;
65684;SDS011;52405;50.844;-1.062;2022-12-18T14:31:29;27.42;;;6.80;;
65684;SDS011;52405;50.844;-1.062;2022-12-18T14:33:55;25.95;;;7.03;;
65684;SDS011;52405;50.844;-1.062;2022-12-18T14:36:25;26.52;;;7.43;;
65684;SDS011;52405;50.844;-1.062;2022-12-18T14:38:53;24.02;;;6.75;;
65684;SDS011;52405;50.844;-1.062;2022-12-18T14:41:20;31.48;;;6.72;;
65684;SDS011;52405;50.844;-1.062;2022-12-18T14:43:47;25.42;;;5.60;;
65684;SDS011;52405;50.844;-1.062;2022-12-18T14:49:03;23.20;;;6.38;;
65684;SDS011;52405;50.844;-1.062;2022-12-18T14:52:05;21.58;;;5.75;;
65684;SDS011;52405;50.844;-1.062;2022-12-18T14:54:40;26.45;;;5.80;;
65684;SDS011;52405;50.844;-1.062;2022-12-18T14:57:20;28.77;;;7.10;;
65684;SDS011;52405;50.844;-1.062;2022-12-18T14:59:48;19.67;;;7.15;;
65684;SDS011;52405;50.844;-1.062;2022-12-18T15:02:25;27.25;;;5.63;;
65684;SDS011;52405;50.844;-1.062;2022-12-18T15:05:14;20.60;;;6.15;;
65684;SDS011;52405;50.844;-1.062;2022-12-18T15:07:46;26.60;;;5.20;;
65684;SDS011;52405;50.844;-1.062;2022-12-18T15:10:17;20.45;;;6.20;;
65684;SDS011;52405;50.844;-1.062;2022-12-18T15:20:41;23.02;;;5.93;;
65684;SDS011;52405;50.844;-1.062;2022-12-18T15:25:59;31.08;;;6.45;;
65684;SDS011;52405;50.844;-1.062;2022-12-18T15:28:27;24.03;;;5.83;;
65684;SDS011;52405;50.844;-1.062;2022-12-18T15:30:58;29.13;;;6.82;;
65684;SDS011;52405;50.844;-1.062;2022-12-18T15:33:32;22.30;;;7.45;;
65684;SDS011;52405;50.844;-1.062;2022-12-18T15:36:00;30.35;;;8.18;;
65684;SDS011;52405;50.844;-1.062;2022-12-18T15:38:28;30.45;;;8.02;;
65684;SDS011;52405;50.844;-1.062;2022-12-18T15:40:54;26.55;;;6.63;;
65684;SDS011;52405;50.844;-1.062;2022-12-18T15:43:23;32.08;;;8.25;;
65684;SDS011;52405;50.844;-1.062;2022-12-18T15:45:58;37.75;;;9.13;;
65684;SDS011;52405;50.844;-1.062;2022-12-18T15:48:27;32.85;;;8.43;;
65684;SDS011;52405;50.844;-1.062;2022-12-18T15:50:53;33.08;;;8.00;;
65684;SDS011;52405;50.844;-1.062;2022-12-18T15:53:22;31.85;;;7.40;;
65684;SDS011;52405;50.844;-1.062;2022-12-18T15:55:49;29.58;;;6.93;;
65684;SDS011;52405;50.844;-1.062;2022-12-18T15:58:33;37.30;;;8.63;;
65684;SDS011;52405;50.844;-1.062;2022-12-18T16:00:58;36.40;;;9.30;;
65684;SDS011;52405;50.844;-1.062;2022-12-18T16:03:25;44.63;;;9.60;;
65684;SDS011;52405;50.844;-1.062;2022-12-18T16:05:51;30.27;;;8.65;;
65684;SDS011;52405;50.844;-1.062;2022-12-18T16:08:16;27.17;;;7.72;;
65684;SDS011;52405;50.844;-1.062;2022-12-18T16:10:42;29.50;;;8.35;;
65684;SDS011;52405;50.844;-1.062;2022-12-18T16:13:11;35.67;;;7.40;;
65684;SDS011;52405;50.844;-1.062;2022-12-18T16:15:40;30.08;;;9.45;;
65684;SDS011;52405;50.844;-1.062;2022-12-18T16:18:07;33.00;;;9.55;;
65684;SDS011;52405;50.844;-1.062;2022-12-18T16:20:32;47.90;;;9.80;;
65684;SDS011;52405;50.844;-1.062;2022-12-18T16:23:00;34.08;;;10.57;;
65684;SDS011;52405;50.844;-1.062;2022-12-18T16:25:28;31.15;;;7.28;;
65684;SDS011;52405;50.844;-1.062;2022-12-18T16:27:55;42.00;;;9.25;;
65684;SDS011;52405;50.844;-1.062;2022-12-18T16:30:25;26.48;;;9.30;;
65684;SDS011;52405;50.844;-1.062;2022-12-18T16:32:59;39.17;;;10.43;;
65684;SDS011;52405;50.844;-1.062;2022-12-18T16:35:25;44.38;;;9.10;;
65684;SDS011;52405;50.844;-1.062;2022-12-18T16:37:51;32.65;;;8.38;;
65684;SDS011;52405;50.844;-1.062;2022-12-18T16:40:17;44.03;;;12.40;;
65684;SDS011;52405;50.844;-1.062;2022-12-18T16:42:44;30.23;;;8.57;;